createdAt,value
2023-02-19T00:01:42.548Z,10.91
2023-02-19T00:04:14.128Z,10.99
2023-02-19T00:06:42.660Z,10.89
2023-02-19T00:09:11.493Z,10.94
2023-02-19T00:11:39.491Z,10.96
2023-02-19T00:14:09.451Z,10.82
2023-02-19T00:16:39.451Z,10.74
2023-02-19T00:19:08.931Z,11.03
2023-02-19T00:21:36.504Z,10.97
2023-02-19T00:24:06.750Z,11.00
2023-02-19T00:26:34.437Z,10.88
2023-02-19T00:29:02.619Z,10.89
2023-02-19T00:31:33.646Z,10.78
2023-02-19T00:34:03.027Z,10.98
2023-02-19T00:36:32.583Z,10.92
2023-02-19T00:39:00.160Z,10.88
2023-02-19T00:41:29.287Z,10.70
2023-02-19T00:43:59.136Z,10.80
2023-02-19T00:46:29.395Z,10.77
2023-02-19T00:48:59.001Z,10.80
2023-02-19T00:51:29.131Z,10.72
2023-02-19T00:53:56.936Z,10.69
2023-02-19T00:56:25.313Z,10.76
2023-02-19T00:58:53.297Z,10.87
2023-02-19T01:01:22.108Z,10.85
2023-02-19T01:03:50.108Z,10.78
2023-02-19T01:06:21.154Z,10.62
2023-02-19T01:08:49.232Z,10.72
2023-02-19T01:11:18.660Z,10.66
2023-02-19T01:13:46.239Z,10.74
2023-02-19T01:16:15.869Z,10.74
2023-02-19T01:18:44.586Z,10.71
2023-02-19T01:21:15.069Z,10.74
2023-02-19T01:23:44.199Z,10.60
2023-02-19T01:26:14.643Z,10.66
2023-02-19T01:28:42.644Z,10.68
2023-02-19T01:31:14.855Z,10.62
2023-02-19T01:33:46.907Z,10.61
2023-02-19T01:36:15.604Z,10.59
2023-02-19T01:38:45.296Z,10.63
2023-02-19T01:41:16.046Z,10.63
2023-02-19T01:44:01.986Z,10.44
2023-02-19T01:46:32.577Z,10.58
2023-02-19T01:49:05.353Z,10.72
2023-02-19T01:51:34.926Z,10.41
2023-02-19T01:54:06.698Z,10.46
2023-02-19T01:56:36.830Z,10.46
2023-02-19T01:59:04.444Z,10.39
2023-02-19T02:01:32.672Z,10.37
2023-02-19T02:04:01.478Z,10.50
2023-02-19T02:06:32.001Z,10.53
2023-02-19T02:09:17.822Z,10.44
2023-02-19T02:11:49.625Z,10.51
2023-02-19T02:14:19.449Z,10.53
2023-02-19T02:16:57.146Z,10.61
2023-02-19T02:19:57.377Z,10.64
2023-02-19T02:22:30.816Z,10.64
2023-02-19T02:25:25.835Z,10.44
2023-02-19T02:28:08.246Z,10.50
2023-02-19T02:30:43.516Z,10.62
2023-02-19T02:33:20.496Z,10.41
2023-02-19T02:35:52.664Z,10.43
2023-02-19T02:38:25.238Z,10.58
2023-02-19T02:40:55.896Z,10.56
2023-02-19T02:43:25.616Z,10.56
2023-02-19T02:45:55.060Z,10.36
2023-02-19T02:48:34.309Z,10.52
2023-02-19T02:51:14.518Z,10.57
2023-02-19T02:54:12.226Z,10.56
2023-02-19T02:56:42.614Z,10.25
2023-02-19T02:59:13.417Z,10.24
2023-02-19T03:02:04.006Z,10.22
2023-02-19T03:04:58.934Z,9.94
2023-02-19T03:07:31.161Z,9.83
2023-02-19T03:10:01.069Z,9.74
2023-02-19T03:12:49.964Z,9.45
2023-02-19T03:15:35.975Z,9.45
2023-02-19T03:18:28.425Z,9.39
2023-02-19T03:20:58.943Z,9.21
2023-02-19T03:23:45.366Z,9.03
2023-02-19T03:26:14.673Z,8.95
2023-02-19T03:29:11.911Z,8.92
2023-02-19T03:31:46.127Z,9.06
2023-02-19T03:34:18.380Z,9.16
2023-02-19T03:36:52.413Z,8.95
2023-02-19T03:39:23.769Z,9.00
2023-02-19T03:41:59.151Z,9.09
2023-02-19T03:44:37.135Z,9.08
2023-02-19T03:47:08.164Z,8.87
2023-02-19T03:49:47.831Z,8.84
2023-02-19T03:52:25.401Z,9.06
2023-02-19T03:55:00.250Z,8.81
2023-02-19T03:57:39.168Z,8.91
2023-02-19T04:00:12.728Z,9.00
2023-02-19T04:02:45.779Z,8.77
2023-02-19T04:05:19.785Z,8.69
2023-02-19T04:07:53.555Z,8.61
2023-02-19T04:10:27.437Z,8.70
2023-02-19T04:13:01.193Z,8.69
2023-02-19T04:15:32.685Z,8.44
2023-02-19T04:18:03.936Z,8.48
2023-02-19T04:20:37.905Z,8.47
2023-02-19T04:23:06.476Z,8.36
2023-02-19T04:25:35.373Z,8.42
2023-02-19T04:28:03.680Z,8.43
2023-02-19T04:30:31.322Z,8.39
2023-02-19T04:32:59.384Z,8.40
2023-02-19T04:35:27.072Z,8.36
2023-02-19T04:37:56.589Z,8.32
2023-02-19T04:40:24.161Z,8.44
2023-02-19T04:42:52.225Z,8.43
2023-02-19T04:45:19.813Z,8.48
2023-02-19T04:47:47.388Z,8.24
2023-02-19T04:50:15.169Z,8.42
2023-02-19T04:52:43.157Z,8.52
2023-02-19T04:55:12.094Z,8.49
2023-02-19T04:57:40.269Z,8.31
2023-02-19T05:00:09.620Z,8.19
2023-02-19T05:02:37.277Z,8.38
2023-02-19T05:05:05.834Z,8.32
2023-02-19T05:07:34.128Z,8.35
2023-02-19T05:10:01.875Z,8.30
2023-02-19T05:12:32.004Z,8.21
2023-02-19T05:14:59.924Z,8.01
2023-02-19T05:17:27.520Z,8.38
2023-02-19T05:19:55.227Z,8.36
2023-02-19T05:22:22.783Z,8.26
2023-02-19T05:24:50.696Z,8.34
2023-02-19T05:27:18.268Z,8.39
2023-02-19T05:29:47.848Z,8.47
2023-02-19T05:32:15.563Z,8.45
2023-02-19T05:34:43.392Z,8.53
2023-02-19T05:37:11.135Z,8.43
2023-02-19T05:39:39.404Z,8.42
2023-02-19T05:42:06.957Z,8.45
2023-02-19T05:44:34.714Z,8.39
2023-02-19T05:47:03.611Z,8.54
2023-02-19T05:49:31.730Z,8.50
2023-02-19T05:51:59.287Z,8.46
2023-02-19T05:54:30.009Z,8.43
2023-02-19T05:56:57.616Z,8.44
2023-02-19T05:59:27.756Z,8.56
2023-02-19T06:01:58.173Z,8.49
2023-02-19T06:04:27.491Z,8.48
2023-02-19T06:06:55.054Z,8.53
2023-02-19T06:09:22.814Z,8.48
2023-02-19T06:11:50.432Z,8.39
2023-02-19T06:14:18.822Z,8.56
2023-02-19T06:16:46.367Z,8.60
2023-02-19T06:19:14.253Z,8.56
2023-02-19T06:21:43.133Z,8.72
2023-02-19T06:24:11.722Z,8.76
2023-02-19T06:26:39.357Z,8.68
2023-02-19T06:29:07.955Z,8.49
2023-02-19T06:31:35.604Z,8.50
2023-02-19T06:34:05.406Z,8.64
2023-02-19T06:36:32.973Z,8.66
2023-02-19T06:39:02.773Z,8.76
2023-02-19T06:41:30.339Z,8.87
2023-02-19T06:43:58.769Z,8.70
2023-02-19T06:46:26.636Z,8.81
2023-02-19T06:48:54.498Z,8.73
2023-02-19T06:51:24.555Z,8.82
2023-02-19T06:53:52.137Z,8.84
2023-02-19T06:56:26.735Z,8.78
2023-02-19T06:58:55.085Z,8.84
2023-02-19T07:01:23.365Z,8.93
2023-02-19T07:03:52.382Z,8.67
2023-02-19T07:06:20.478Z,8.55
2023-02-19T07:08:48.237Z,8.68
2023-02-19T07:11:16.277Z,8.36
2023-02-19T07:13:45.837Z,8.59
2023-02-19T07:16:13.946Z,8.47
2023-02-19T07:18:41.861Z,8.41
2023-02-19T07:21:12.727Z,8.28
2023-02-19T07:23:41.007Z,8.21
2023-02-19T07:26:11.457Z,8.27
2023-02-19T07:28:39.186Z,8.32
2023-02-19T07:31:08.519Z,8.35
2023-02-19T07:33:36.159Z,8.14
2023-02-19T07:36:04.523Z,8.19
2023-02-19T07:38:32.110Z,8.06
2023-02-19T07:41:01.711Z,8.15
2023-02-19T07:43:32.208Z,8.25
2023-02-19T07:46:00.514Z,8.21
2023-02-19T07:48:29.429Z,8.39
2023-02-19T07:50:59.080Z,8.22
2023-02-19T07:53:28.845Z,8.45
2023-02-19T07:56:01.677Z,8.43
2023-02-19T07:58:29.683Z,8.41
2023-02-19T08:00:57.872Z,8.49
2023-02-19T08:03:24.521Z,8.58
2023-02-19T08:05:54.923Z,8.50
2023-02-19T08:08:22.643Z,8.72
2023-02-19T08:11:08.596Z,8.72
2023-02-19T08:13:36.306Z,8.64
2023-02-19T08:16:21.885Z,8.90
2023-02-19T08:18:54.753Z,8.64
2023-02-19T08:21:24.760Z,8.82
2023-02-19T08:23:52.350Z,8.94
2023-02-19T08:26:20.661Z,9.10
2023-02-19T08:28:49.760Z,9.04
2023-02-19T08:31:17.726Z,9.16
2023-02-19T08:33:45.367Z,9.17
2023-02-19T08:36:13.608Z,9.31
2023-02-19T08:38:42.533Z,9.55
2023-02-19T08:41:12.700Z,9.26
2023-02-19T08:43:41.284Z,9.18
2023-02-19T08:46:10.554Z,9.45
2023-02-19T08:48:38.927Z,9.31
2023-02-19T08:51:09.523Z,9.47
2023-02-19T08:53:39.348Z,9.67
2023-02-19T08:56:09.995Z,9.55
2023-02-19T08:58:38.316Z,9.32
2023-02-19T09:01:10.121Z,9.24
2023-02-19T09:03:37.970Z,9.97
2023-02-19T09:06:06.259Z,10.46
2023-02-19T09:08:33.962Z,10.11
2023-02-19T09:11:02.157Z,9.53
2023-02-19T09:13:31.492Z,8.79
2023-02-19T09:15:59.341Z,8.93
2023-02-19T09:18:27.899Z,8.93
2023-02-19T09:20:55.480Z,8.52
2023-02-19T09:23:23.593Z,8.34
2023-02-19T09:25:58.486Z,9.36
2023-02-19T09:28:26.498Z,8.99
2023-02-19T09:30:55.959Z,9.08
2023-02-19T09:33:24.192Z,8.94
2023-02-19T09:35:51.923Z,8.92
2023-02-19T09:38:19.673Z,9.50
2023-02-19T09:40:47.344Z,9.55
2023-02-19T09:43:19.595Z,10.21
2023-02-19T09:45:47.367Z,10.51
2023-02-19T09:48:16.295Z,10.20
2023-02-19T09:50:48.522Z,10.89
2023-02-19T09:53:21.844Z,11.34
2023-02-19T09:55:50.126Z,11.78
2023-02-19T09:58:27.353Z,11.74
2023-02-19T10:00:57.103Z,11.84
2023-02-19T10:03:31.812Z,11.43
2023-02-19T10:06:01.734Z,11.49
2023-02-19T10:08:34.160Z,11.65
2023-02-19T10:11:04.100Z,11.97
2023-02-19T10:13:35.584Z,12.34
2023-02-19T10:16:05.537Z,12.13
2023-02-19T10:18:39.230Z,11.60
2023-02-19T10:21:07.335Z,11.57
2023-02-19T10:23:35.245Z,11.38
2023-02-19T10:26:02.862Z,11.69
2023-02-19T10:28:33.543Z,12.08
2023-02-19T10:31:02.981Z,12.74
2023-02-19T10:33:31.369Z,13.07
2023-02-19T10:36:03.352Z,13.14
2023-02-19T10:38:34.770Z,13.50
2023-02-19T10:41:07.059Z,13.37
2023-02-19T10:43:39.822Z,13.27
2023-02-19T10:46:09.136Z,13.25
2023-02-19T10:48:39.536Z,13.16
2023-02-19T10:51:12.335Z,13.24
2023-02-19T10:53:46.337Z,13.05
2023-02-19T10:56:16.223Z,12.38
2023-02-19T10:58:47.497Z,11.77
2023-02-19T11:01:19.590Z,12.16
2023-02-19T11:03:48.897Z,11.63
2023-02-19T11:06:21.193Z,11.42
2023-02-19T11:08:56.913Z,10.63
2023-02-19T11:11:33.725Z,10.50
2023-02-19T11:14:06.937Z,10.72
2023-02-19T11:16:43.879Z,10.63
2023-02-19T11:19:27.124Z,10.46
2023-02-19T11:21:57.415Z,10.20
2023-02-19T11:24:35.103Z,10.71
2023-02-19T11:27:05.082Z,11.04
2023-02-19T11:29:35.777Z,11.48
2023-02-19T11:32:26.383Z,11.46
2023-02-19T11:35:14.295Z,11.77
2023-02-19T11:37:55.133Z,11.50
2023-02-19T11:40:26.800Z,11.84
2023-02-19T11:43:01.710Z,11.39
2023-02-19T11:45:39.068Z,11.53
2023-02-19T11:48:30.247Z,11.63
2023-02-19T11:51:14.875Z,11.77
2023-02-19T11:53:49.856Z,11.85
2023-02-19T11:56:20.339Z,12.41
2023-02-19T11:59:06.460Z,12.08
2023-02-19T12:02:00.422Z,11.21
2023-02-19T12:04:53.803Z,10.93
2023-02-19T12:07:36.984Z,11.54
2023-02-19T12:10:14.748Z,11.02
2023-02-19T12:12:56.872Z,11.20
2023-02-19T12:15:36.394Z,10.54
2023-02-19T12:18:29.182Z,10.23
2023-02-19T12:21:13.291Z,9.86
2023-02-19T12:24:04.000Z,10.04
2023-02-19T12:26:41.183Z,10.17
2023-02-19T12:29:26.098Z,10.15
2023-02-19T12:32:14.845Z,10.20
2023-02-19T12:35:12.473Z,9.65
2023-02-19T12:37:48.428Z,9.51
2023-02-19T12:40:29.457Z,9.51
2023-02-19T12:43:10.352Z,9.81
2023-02-19T12:45:43.875Z,10.32
2023-02-19T12:48:19.548Z,10.69
2023-02-19T12:50:52.232Z,10.47
2023-02-19T12:53:32.434Z,10.21
2023-02-19T12:56:05.515Z,9.51
2023-02-19T12:58:41.485Z,9.41
2023-02-19T13:01:15.004Z,8.57
2023-02-19T13:03:50.252Z,8.67
2023-02-19T13:06:27.969Z,8.98
2023-02-19T13:09:07.221Z,8.86
2023-02-19T13:11:40.483Z,8.91
2023-02-19T13:14:19.543Z,9.14
2023-02-19T13:16:53.554Z,9.12
2023-02-19T13:19:21.160Z,9.18
2023-02-19T13:22:14.876Z,9.54
2023-02-19T13:24:45.928Z,9.36
2023-02-19T13:27:31.940Z,9.43
2023-02-19T13:30:11.445Z,9.26
2023-02-19T13:32:54.104Z,9.37
2023-02-19T13:35:38.806Z,9.79
2023-02-19T13:38:07.679Z,10.04
2023-02-19T13:40:39.174Z,9.69
2023-02-19T13:43:21.616Z,9.80
2023-02-19T13:45:56.869Z,9.40
2023-02-19T13:48:30.471Z,9.47
2023-02-19T13:51:36.673Z,9.43
2023-02-19T13:54:15.332Z,9.54
2023-02-19T13:56:43.800Z,9.43
2023-02-19T13:59:24.916Z,9.47
2023-02-19T14:02:30.896Z,9.61
2023-02-19T14:05:01.096Z,9.47
2023-02-19T14:08:02.097Z,9.34
2023-02-19T14:11:03.700Z,9.42
2023-02-19T14:13:57.989Z,9.26
2023-02-19T14:16:52.748Z,9.54
2023-02-19T14:19:50.266Z,9.50
2023-02-19T14:22:51.294Z,9.68
2023-02-19T14:25:35.347Z,9.60
2023-02-19T14:28:07.268Z,9.77
2023-02-19T14:30:41.863Z,9.75
2023-02-19T14:33:12.001Z,9.74
2023-02-19T14:35:43.977Z,9.93
2023-02-19T14:38:19.108Z,9.85
2023-02-19T14:40:49.425Z,9.81
2023-02-19T14:43:19.737Z,9.97
2023-02-19T14:45:50.296Z,10.17
2023-02-19T14:48:22.844Z,9.97
2023-02-19T14:50:56.165Z,10.26
2023-02-19T14:53:25.351Z,10.35
2023-02-19T14:55:55.858Z,10.18
2023-02-19T14:58:27.124Z,10.15
2023-02-19T15:00:55.543Z,10.41
2023-02-19T15:03:27.609Z,10.39
2023-02-19T15:05:59.712Z,10.05
2023-02-19T15:08:34.146Z,10.21
2023-02-19T15:11:05.268Z,10.08
2023-02-19T15:13:32.956Z,10.09
2023-02-19T15:16:01.003Z,9.97
2023-02-19T15:18:29.893Z,9.76
2023-02-19T15:21:05.936Z,9.57
2023-02-19T15:23:37.187Z,9.60
2023-02-19T15:26:05.003Z,9.82
2023-02-19T15:28:34.992Z,9.64
2023-02-19T15:31:08.293Z,9.87
2023-02-19T15:33:36.049Z,9.60
2023-02-19T15:36:07.830Z,9.55
2023-02-19T15:38:35.931Z,9.54
2023-02-19T15:41:04.528Z,9.45
2023-02-19T15:43:39.140Z,9.52
2023-02-19T15:46:15.897Z,9.47
2023-02-19T15:48:49.239Z,9.71
2023-02-19T15:51:25.095Z,9.67
2023-02-19T15:53:57.366Z,9.53
2023-02-19T15:56:30.382Z,9.25
2023-02-19T15:59:02.883Z,9.28
2023-02-19T16:01:31.967Z,9.27
2023-02-19T16:04:00.093Z,9.28
2023-02-19T16:06:30.449Z,9.27
2023-02-19T16:09:03.277Z,9.40
2023-02-19T16:11:36.438Z,9.28
2023-02-19T16:14:25.279Z,9.31
2023-02-19T16:16:56.796Z,9.16
2023-02-19T16:19:28.496Z,9.18
2023-02-19T16:21:59.735Z,9.37
2023-02-19T16:24:31.024Z,9.31
2023-02-19T16:26:59.498Z,9.16
2023-02-19T16:29:29.943Z,9.30
2023-02-19T16:31:59.686Z,9.30
2023-02-19T16:34:40.237Z,9.15
2023-02-19T16:37:34.664Z,8.98
2023-02-19T16:40:50.687Z,9.00
2023-02-19T16:43:28.132Z,8.94
2023-02-19T16:45:55.833Z,8.96
2023-02-19T16:48:24.449Z,8.95
2023-02-19T16:50:52.442Z,8.95
2023-02-19T16:53:24.739Z,8.70
2023-02-19T16:55:52.722Z,8.72
2023-02-19T16:58:20.517Z,8.72
2023-02-19T17:00:48.553Z,8.88
2023-02-19T17:03:20.419Z,8.73
2023-02-19T17:05:48.671Z,8.73
2023-02-19T17:08:36.981Z,8.62
2023-02-19T17:11:06.362Z,8.79
2023-02-19T17:13:34.339Z,8.76
2023-02-19T17:16:02.383Z,8.67
2023-02-19T17:18:30.510Z,8.69
2023-02-19T17:21:02.322Z,8.84
2023-02-19T17:23:30.526Z,8.83
2023-02-19T17:25:59.496Z,8.80
2023-02-19T17:28:27.384Z,8.74
2023-02-19T17:30:55.153Z,8.68
2023-02-19T17:33:23.188Z,8.62
2023-02-19T17:35:50.791Z,8.66
2023-02-19T17:38:18.728Z,8.75
2023-02-19T17:40:46.293Z,8.63
2023-02-19T17:43:15.773Z,8.49
2023-02-19T17:45:43.385Z,8.62
2023-02-19T17:48:14.221Z,8.59
2023-02-19T17:50:42.503Z,8.52
2023-02-19T17:53:10.935Z,8.62
2023-02-19T17:55:38.653Z,8.54
2023-02-19T17:58:06.900Z,8.60
2023-02-19T18:00:36.575Z,8.59
2023-02-19T18:03:04.911Z,8.56
2023-02-19T18:05:32.505Z,8.51
2023-02-19T18:08:00.446Z,8.51
2023-02-19T18:10:30.371Z,8.57
2023-02-19T18:12:57.953Z,8.46
2023-02-19T18:15:27.414Z,8.39
2023-02-19T18:17:58.059Z,8.49
2023-02-19T18:20:31.249Z,8.49
2023-02-19T18:22:59.170Z,8.38
2023-02-19T18:25:27.635Z,8.51
2023-02-19T18:27:55.448Z,8.39
2023-02-19T18:30:23.981Z,8.31
2023-02-19T18:32:52.203Z,8.44
2023-02-19T18:35:21.915Z,8.40
2023-02-19T18:37:51.728Z,8.42
2023-02-19T18:40:20.606Z,8.20
2023-02-19T18:42:48.304Z,8.15
2023-02-19T18:45:18.298Z,8.25
2023-02-19T18:47:47.604Z,8.18
2023-02-19T18:50:16.314Z,8.20
2023-02-19T18:52:46.399Z,8.14
2023-02-19T18:55:14.327Z,8.15
2023-02-19T18:57:41.985Z,8.14
2023-02-19T19:00:11.032Z,8.15
2023-02-19T19:02:48.875Z,8.11
2023-02-19T19:05:21.217Z,8.19
2023-02-19T19:07:50.363Z,8.25
2023-02-19T19:10:19.237Z,8.17
2023-02-19T19:12:46.825Z,8.25
2023-02-19T19:15:18.068Z,8.27
2023-02-19T19:17:46.149Z,8.05
2023-02-19T19:20:14.801Z,8.22
2023-02-19T19:22:42.432Z,8.24
2023-02-19T19:25:11.851Z,8.31
2023-02-19T19:27:39.452Z,8.20
2023-02-19T19:30:08.768Z,8.20
2023-02-19T19:32:36.399Z,8.20
2023-02-19T19:35:04.504Z,8.24
2023-02-19T19:37:32.202Z,8.06
2023-02-19T19:40:00.195Z,8.13
2023-02-19T19:42:29.133Z,8.20
2023-02-19T19:44:57.324Z,8.13
2023-02-19T19:47:24.936Z,8.09
2023-02-19T19:49:53.097Z,8.22
2023-02-19T19:52:20.724Z,8.17
2023-02-19T19:54:48.676Z,8.17
2023-02-19T19:57:17.020Z,8.07
2023-02-19T19:59:49.680Z,8.07
2023-02-19T20:02:18.123Z,8.02
2023-02-19T20:04:45.796Z,8.02
2023-02-19T20:07:13.779Z,7.95
2023-02-19T20:09:41.568Z,8.08
2023-02-19T20:12:11.583Z,8.04
2023-02-19T20:14:39.599Z,8.02
2023-02-19T20:17:09.859Z,8.09
2023-02-19T20:19:37.491Z,8.04
2023-02-19T20:22:05.208Z,8.01
2023-02-19T20:24:32.865Z,8.14
2023-02-19T20:27:02.576Z,8.02
2023-02-19T20:29:32.938Z,8.14
2023-02-19T20:32:03.446Z,8.22
2023-02-19T20:34:33.016Z,8.20
2023-02-19T20:37:00.968Z,7.97
2023-02-19T20:39:29.840Z,8.20
2023-02-19T20:41:58.457Z,8.25
2023-02-19T20:44:27.130Z,8.31
2023-02-19T20:46:56.266Z,8.22
2023-02-19T20:49:27.040Z,8.05
2023-02-19T20:51:58.046Z,7.85
2023-02-19T20:54:28.107Z,8.05
2023-02-19T20:56:57.545Z,8.00
2023-02-19T20:59:30.433Z,8.06
2023-02-19T21:01:59.109Z,8.06
2023-02-19T21:04:27.308Z,8.02
2023-02-19T21:06:56.332Z,8.02
2023-02-19T21:09:24.460Z,8.15
2023-02-19T21:11:53.041Z,8.05
2023-02-19T21:14:20.651Z,8.01
2023-02-19T21:16:48.330Z,7.99
2023-02-19T21:19:16.000Z,8.09
2023-02-19T21:21:43.771Z,8.00
2023-02-19T21:24:14.804Z,8.17
2023-02-19T21:26:43.603Z,8.25
2023-02-19T21:29:16.533Z,8.36
2023-02-19T21:31:46.449Z,8.30
2023-02-19T21:34:16.314Z,8.13
2023-02-19T21:36:44.583Z,8.11
2023-02-19T21:39:15.949Z,8.13
2023-02-19T21:41:43.559Z,8.18
2023-02-19T21:44:11.700Z,8.11
2023-02-19T21:46:40.160Z,8.09
2023-02-19T21:49:07.760Z,8.15
2023-02-19T21:51:37.756Z,8.17
2023-02-19T21:54:06.317Z,8.15
2023-02-19T21:56:36.948Z,8.15
2023-02-19T21:59:05.859Z,8.08
2023-02-19T22:01:38.838Z,8.04
2023-02-19T22:04:08.181Z,8.06
2023-02-19T22:06:36.809Z,7.99
2023-02-19T22:09:04.740Z,7.93
2023-02-19T22:11:32.352Z,7.96
2023-02-19T22:14:01.784Z,7.93
2023-02-19T22:16:29.640Z,7.94
2023-02-19T22:18:59.989Z,7.91
2023-02-19T22:21:32.248Z,8.01
2023-02-19T22:24:01.957Z,8.02
2023-02-19T22:26:32.291Z,8.02
2023-02-19T22:29:05.914Z,8.13
2023-02-19T22:31:34.074Z,8.00
2023-02-19T22:34:02.553Z,8.03
2023-02-19T22:36:32.031Z,8.04
2023-02-19T22:39:00.576Z,8.05
2023-02-19T22:41:28.636Z,8.09
2023-02-19T22:43:57.260Z,8.08
2023-02-19T22:46:28.696Z,8.15
2023-02-19T22:48:57.512Z,8.07
2023-02-19T22:51:25.815Z,8.06
2023-02-19T22:53:55.606Z,8.15
2023-02-19T22:56:24.743Z,7.98
2023-02-19T22:58:53.632Z,8.04
2023-02-19T23:01:21.827Z,8.01
2023-02-19T23:03:54.157Z,8.03
2023-02-19T23:06:24.245Z,8.00
2023-02-19T23:08:53.214Z,7.91
2023-02-19T23:11:22.476Z,7.93
2023-02-19T23:13:50.382Z,7.80
2023-02-19T23:16:18.535Z,7.82
2023-02-19T23:18:46.537Z,7.97
2023-02-19T23:21:16.068Z,8.04
2023-02-19T23:23:45.214Z,8.09
2023-02-19T23:26:14.631Z,8.13
2023-02-19T23:28:44.383Z,8.04
2023-02-19T23:31:12.842Z,8.00
2023-02-19T23:33:41.705Z,7.99
2023-02-19T23:36:10.919Z,7.97
2023-02-19T23:38:40.559Z,7.73
2023-02-19T23:41:10.721Z,7.95
2023-02-19T23:43:39.635Z,7.85
2023-02-19T23:46:07.638Z,7.81
2023-02-19T23:48:35.821Z,7.81
2023-02-19T23:51:03.458Z,7.81
2023-02-19T23:53:31.404Z,7.79
2023-02-19T23:56:00.618Z,7.84
2023-02-19T23:58:28.607Z,7.65
